Time;durP1;ratioP1;P1;durP2;ratioP2;P2;SDS_P1;SDS_P2;PMS_P1;PMS_P2;Temp;Humidity;BMP_temperature;BMP_pressure;BME280_temperature;BME280_humidity;BME280_pressure;Samples;Min_cycle;Max_cycle;Signal;HPM_P1;HPM_P2
2022/06/03 00:02:18;;;;;;;;;5.00;4.75;;;;;;;;4975201;28;45501;-63
2022/06/03 00:04:44;;;;;;;;;3.50;3.50;;;;;;;;4974940;28;45435;-63
2022/06/03 00:07:19;;;;;;;;;2.00;2.00;;;;;;;;4975488;28;46539;-63
2022/06/03 00:10:02;;;;;;;;;3.00;3.00;;;;;;;;4974997;28;45453;-63
2022/06/03 00:12:45;;;;;;;;;3.00;3.00;;;;;;;;4975352;28;45480;-63
2022/06/03 00:15:14;;;;;;;;;3.75;3.75;;;;;;;;4974588;28;45483;-63
2022/06/03 00:17:42;;;;;;;;;4.75;3.75;;;;;;;;4974337;28;47006;-62
2022/06/03 00:20:26;;;;;;;;;1.75;1.75;;;;;;;;4974914;28;45559;-62
2022/06/03 00:22:57;;;;;;;;;2.75;2.75;;;;;;;;4974569;28;45871;-63
2022/06/03 00:25:29;;;;;;;;;4.50;3.00;;;;;;;;4974918;28;45557;-62
2022/06/03 00:28:00;;;;;;;;;2.75;2.75;;;;;;;;4973883;28;46634;-63
2022/06/03 00:30:43;;;;;;;;;4.00;4.00;;;;;;;;4974189;28;45490;-63
2022/06/03 00:33:14;;;;;;;;;4.00;3.00;;;;;;;;4974035;28;45383;-62
2022/06/03 00:35:50;;;;;;;;;3.25;3.25;;;;;;;;4993356;28;46420;-61
2022/06/03 00:38:24;;;;;;;;;2.25;2.25;;;;;;;;5033290;28;47396;-62
2022/06/03 00:41:08;;;;;;;;;2.75;2.75;;;;;;;;5002888;28;47779;-63
2022/06/03 00:43:58;;;;;;;;;3.00;3.00;;;;;;;;5020167;28;45454;-63
2022/06/03 00:46:39;;;;;;;;;3.25;3.25;;;;;;;;5019545;28;45495;-63
2022/06/03 00:49:22;;;;;;;;;3.00;3.00;;;;;;;;5008445;28;46490;-63
2022/06/03 00:51:50;;;;;;;;;2.25;2.25;;;;;;;;5013436;28;45827;-63
2022/06/03 00:54:34;;;;;;;;;3.75;3.75;;;;;;;;5022079;28;45429;-62
2022/06/03 00:57:14;;;;;;;;;4.25;3.50;;;;;;;;5018462;28;45594;-62
2022/06/03 00:59:48;;;;;;;;;5.25;5.00;;;;;;;;5020703;28;46612;-63
2022/06/03 01:02:14;;;;;;;;;2.50;2.50;;;;;;;;5022852;28;45394;-64
2022/06/03 01:04:58;;;;;;;;;4.50;3.50;;;;;;;;5023384;28;45454;-64
2022/06/03 01:07:33;;;;;;;;;4.50;3.50;;;;;;;;5015342;28;45566;-63
2022/06/03 01:10:10;;;;;;;;;3.00;3.00;;;;;;;;5034119;28;46552;-63
2022/06/03 01:12:54;;;;;;;;;3.75;3.75;;;;;;;;5032589;28;45353;-63
2022/06/03 01:15:30;;;;;;;;;3.00;3.00;;;;;;;;5032452;28;45192;-62
2022/06/03 01:17:58;;;;;;;;;3.75;2.50;;;;;;;;5025678;28;45525;-64
2022/06/03 01:20:37;;;;;;;;;3.00;3.00;;;;;;;;5019944;28;45709;-64
2022/06/03 01:23:20;;;;;;;;;2.75;2.75;;;;;;;;5029732;28;45640;-64
2022/06/03 01:25:51;;;;;;;;;2.75;2.75;;;;;;;;5018519;28;45684;-63
2022/06/03 01:28:20;;;;;;;;;2.50;2.50;;;;;;;;5020518;28;45472;-62
2022/06/03 01:30:51;;;;;;;;;5.00;4.00;;;;;;;;5027642;28;45875;-63
2022/06/03 01:33:24;;;;;;;;;3.00;3.00;;;;;;;;5017983;28;45476;-63
2022/06/03 01:36:07;;;;;;;;;4.25;3.00;;;;;;;;5017059;28;45366;-64
2022/06/03 01:39:06;;;;;;;;;3.00;3.00;;;;;;;;5017543;28;45307;-63
2022/06/03 01:41:51;;;;;;;;;2.00;2.00;;;;;;;;4967090;28;46328;-63
2022/06/03 01:44:39;;;;;;;;;3.75;3.75;;;;;;;;4970293;28;45524;-63
2022/06/03 01:47:11;;;;;;;;;3.00;3.00;;;;;;;;4974772;28;45672;-62
2022/06/03 01:49:59;;;;;;;;;4.00;3.00;;;;;;;;4973930;28;45337;-63
2022/06/03 01:52:42;;;;;;;;;2.00;2.00;;;;;;;;4971769;28;46466;-63
2022/06/03 01:55:16;;;;;;;;;4.00;4.00;;;;;;;;4974666;28;45511;-63
2022/06/03 01:57:53;;;;;;;;;2.75;2.75;;;;;;;;4980550;28;45640;-63
2022/06/03 02:00:30;;;;;;;;;4.00;2.50;;;;;;;;4980756;28;45528;-63
2022/06/03 02:03:14;;;;;;;;;4.75;4.75;;;;;;;;4965220;28;48588;-63
2022/06/03 02:05:42;;;;;;;;;3.50;3.50;;;;;;;;4950193;28;45316;-63
2022/06/03 02:08:26;;;;;;;;;3.25;3.25;;;;;;;;4985308;28;45531;-63
2022/06/03 02:11:10;;;;;;;;;3.75;3.75;;;;;;;;4958781;28;45412;-62
2022/06/03 02:13:59;;;;;;;;;3.50;3.50;;;;;;;;4955471;28;46122;-62
2022/06/03 02:16:43;;;;;;;;;2.75;2.75;;;;;;;;4974099;28;45963;-63
2022/06/03 02:19:21;;;;;;;;;2.50;2.50;;;;;;;;5022462;28;45927;-62
2022/06/03 02:22:05;;;;;;;;;3.50;3.50;;;;;;;;5011129;28;45574;-64
2022/06/03 02:24:30;;;;;;;;;2.50;2.50;;;;;;;;5016935;28;46750;-63
2022/06/03 02:27:18;;;;;;;;;4.00;4.00;;;;;;;;5019367;28;45405;-63
2022/06/03 02:33:03;;;;;;;;;4.75;4.00;;;;;;;;5025841;28;45474;-63
2022/06/03 02:35:58;;;;;;;;;2.75;2.75;;;;;;;;5033428;28;46099;-63
2022/06/03 02:38:40;;;;;;;;;3.00;3.00;;;;;;;;5024988;28;45271;-63
2022/06/03 02:41:05;;;;;;;;;2.75;2.75;;;;;;;;5017522;28;45383;-63
2022/06/03 02:43:37;;;;;;;;;3.25;3.25;;;;;;;;5018217;28;45588;-64
2022/06/03 02:46:21;;;;;;;;;4.75;2.75;;;;;;;;5019662;28;48674;-64
2022/06/03 02:49:05;;;;;;;;;2.25;2.25;;;;;;;;5016918;28;45446;-64
2022/06/03 02:51:33;;;;;;;;;4.00;3.50;;;;;;;;5016551;28;45441;-63
2022/06/03 02:54:01;;;;;;;;;2.75;2.75;;;;;;;;5016184;28;45464;-64
2022/06/03 02:56:55;;;;;;;;;3.25;3.25;;;;;;;;5016521;28;45625;-64
2022/06/03 02:59:26;;;;;;;;;3.75;3.75;;;;;;;;4983163;28;45345;-63
2022/06/03 03:02:10;;;;;;;;;3.00;3.00;;;;;;;;4975401;28;45523;-62
2022/06/03 03:04:35;;;;;;;;;3.75;2.50;;;;;;;;4975060;28;45340;-63
2022/06/03 03:07:36;;;;;;;;;3.00;3.00;;;;;;;;4974279;28;45480;-63
2022/06/03 03:10:01;;;;;;;;;3.00;2.75;;;;;;;;4953401;28;45754;-62
2022/06/03 03:13:05;;;;;;;;;4.00;4.00;;;;;;;;4952842;28;45868;-63
2022/06/03 03:15:44;;;;;;;;;5.00;4.00;;;;;;;;4952702;28;45421;-63
2022/06/03 03:18:29;;;;;;;;;4.50;4.50;;;;;;;;4951967;28;46044;-63
2022/06/03 03:20:54;;;;;;;;;3.25;3.25;;;;;;;;4939048;28;45577;-63
2022/06/03 03:23:21;;;;;;;;;3.00;3.00;;;;;;;;4942110;28;45989;-63
2022/06/03 03:26:05;;;;;;;;;2.50;2.50;;;;;;;;4952001;28;45568;-63
2022/06/03 03:28:48;;;;;;;;;4.00;3.75;;;;;;;;4952656;28;46552;-64
2022/06/03 03:31:28;;;;;;;;;2.75;2.75;;;;;;;;4953452;28;45264;-63
2022/06/03 03:34:03;;;;;;;;;4.00;2.50;;;;;;;;4955598;28;45456;-62
2022/06/03 03:36:47;;;;;;;;;2.50;2.50;;;;;;;;4957122;28;45536;-63
2022/06/03 03:39:27;;;;;;;;;3.00;3.00;;;;;;;;4958252;28;45514;-63
2022/06/03 03:42:10;;;;;;;;;4.00;4.00;;;;;;;;4956474;28;45310;-63
2022/06/03 03:44:54;;;;;;;;;4.25;4.25;;;;;;;;5003471;28;45644;-62
2022/06/03 03:47:25;;;;;;;;;3.00;3.00;;;;;;;;5037191;28;45669;-62
2022/06/03 03:50:09;;;;;;;;;4.00;4.00;;;;;;;;5039787;28;45399;-63
2022/06/03 03:52:37;;;;;;;;;3.50;3.50;;;;;;;;5038431;28;45452;-63
2022/06/03 03:55:25;;;;;;;;;3.00;3.00;;;;;;;;5039927;28;45468;-63
2022/06/03 03:57:56;;;;;;;;;2.50;2.50;;;;;;;;4975468;28;45618;-63
2022/06/03 04:00:53;;;;;;;;;2.75;2.75;;;;;;;;4975143;28;45708;-62
2022/06/03 04:03:27;;;;;;;;;7.00;5.75;;;;;;;;4959536;28;45378;-63
2022/06/03 04:06:08;;;;;;;;;5.50;4.25;;;;;;;;4972384;28;45514;-61
2022/06/03 04:08:33;;;;;;;;;3.00;3.00;;;;;;;;4975657;28;45572;-61
2022/06/03 04:11:01;;;;;;;;;8.00;5.75;;;;;;;;4974923;28;45582;-61
2022/06/03 04:13:37;;;;;;;;;10.50;9.75;;;;;;;;4974969;28;45457;-62
2022/06/03 04:16:05;;;;;;;;;12.00;10.75;;;;;;;;4974864;28;45281;-62
2022/06/03 04:18:54;;;;;;;;;8.25;8.25;;;;;;;;4975514;28;45415;-62
2022/06/03 04:21:19;;;;;;;;;15.25;11.75;;;;;;;;4960019;28;46425;-62
2022/06/03 04:23:50;;;;;;;;;9.25;9.25;;;;;;;;4956386;28;45470;-62
2022/06/03 04:26:34;;;;;;;;;8.75;7.50;;;;;;;;4975213;28;45454;-62
2022/06/03 04:29:07;;;;;;;;;9.00;8.00;;;;;;;;4975031;28;45509;-62
2022/06/03 04:31:47;;;;;;;;;9.50;9.50;;;;;;;;4974367;28;46369;-61
2022/06/03 04:34:18;;;;;;;;;9.25;9.25;;;;;;;;4970588;28;45445;-61
2022/06/03 04:36:48;;;;;;;;;8.00;8.00;;;;;;;;5036428;28;45307;-62
2022/06/03 04:39:32;;;;;;;;;10.00;10.00;;;;;;;;5019164;28;45707;-62
2022/06/03 04:42:06;;;;;;;;;9.25;9.25;;;;;;;;5045996;28;46822;-62
2022/06/03 04:44:31;;;;;;;;;9.50;9.50;;;;;;;;5034939;28;45511;-62
2022/06/03 04:47:15;;;;;;;;;9.50;9.25;;;;;;;;5036338;28;45541;-62
2022/06/03 04:50:01;;;;;;;;;9.75;8.25;;;;;;;;5036045;28;45492;-62
2022/06/03 04:52:26;;;;;;;;;7.75;7.75;;;;;;;;4965227;28;47514;-63
2022/06/03 04:54:51;;;;;;;;;8.00;8.00;;;;;;;;4967594;28;45455;-63
2022/06/03 04:57:35;;;;;;;;;7.00;5.75;;;;;;;;4955280;28;45471;-62
2022/06/03 05:00:00;;;;;;;;;10.75;8.50;;;;;;;;4968708;28;45369;-63
2022/06/03 05:02:44;;;;;;;;;8.25;8.25;;;;;;;;4968213;28;46789;-64
2022/06/03 05:05:12;;;;;;;;;8.25;7.75;;;;;;;;4965630;28;45408;-63
2022/06/03 05:07:37;;;;;;;;;6.50;6.50;;;;;;;;4966002;28;45373;-61
2022/06/03 05:10:08;;;;;;;;;4.75;4.75;;;;;;;;4968580;28;45622;-63
2022/06/03 05:12:37;;;;;;;;;4.00;4.00;;;;;;;;4956926;28;45642;-63
2022/06/03 05:15:08;;;;;;;;;7.00;6.75;;;;;;;;4956856;28;45562;-62
2022/06/03 05:17:40;;;;;;;;;5.00;4.75;;;;;;;;4958379;28;45458;-63
2022/06/03 05:20:05;;;;;;;;;7.75;6.00;;;;;;;;4942611;28;45501;-64
2022/06/03 05:22:38;;;;;;;;;4.50;4.25;;;;;;;;4958679;28;45874;-63
2022/06/03 05:25:06;;;;;;;;;9.00;8.25;;;;;;;;4942811;28;45561;-63
2022/06/03 05:27:34;;;;;;;;;7.75;7.75;;;;;;;;4956326;28;45623;-63
2022/06/03 05:30:03;;;;;;;;;4.75;4.75;;;;;;;;4999952;28;45337;-63
2022/06/03 05:32:40;;;;;;;;;4.75;4.75;;;;;;;;5032567;28;46340;-62
2022/06/03 05:35:11;;;;;;;;;5.50;5.50;;;;;;;;5036127;28;45409;-62
2022/06/03 05:37:45;;;;;;;;;4.50;4.50;;;;;;;;5035284;28;45407;-62
2022/06/03 05:40:13;;;;;;;;;7.50;7.50;;;;;;;;5040416;28;45491;-61
2022/06/03 05:42:57;;;;;;;;;5.00;4.75;;;;;;;;5033456;28;45715;-62
2022/06/03 05:45:25;;;;;;;;;4.75;3.75;;;;;;;;5036671;28;45448;-62
2022/06/03 05:47:56;;;;;;;;;4.75;4.75;;;;;;;;5038386;28;45350;-63
2022/06/03 05:50:40;;;;;;;;;4.00;4.00;;;;;;;;5038299;28;45730;-63
2022/06/03 05:53:24;;;;;;;;;8.25;4.75;;;;;;;;5032881;28;45424;-64
2022/06/03 05:55:49;;;;;;;;;5.00;5.00;;;;;;;;5032990;28;45452;-63
2022/06/03 05:58:14;;;;;;;;;5.25;5.25;;;;;;;;5038430;28;45455;-62
2022/06/03 06:00:43;;;;;;;;;5.00;5.00;;;;;;;;5036741;28;45490;-64
2022/06/03 06:03:17;;;;;;;;;5.75;5.75;;;;;;;;5031246;28;46494;-63
2022/06/03 06:06:06;;;;;;;;;5.00;5.00;;;;;;;;5034951;28;45458;-63
2022/06/03 06:08:46;;;;;;;;;6.00;5.00;;;;;;;;5016738;28;45290;-64
2022/06/03 06:11:27;;;;;;;;;6.25;5.00;;;;;;;;5049704;28;45671;-64
2022/06/03 06:13:58;;;;;;;;;5.00;5.00;;;;;;;;5018538;28;46402;-64
2022/06/03 06:16:28;;;;;;;;;4.25;4.25;;;;;;;;5037869;28;45378;-64
2022/06/03 06:19:10;;;;;;;;;3.00;3.00;;;;;;;;5037848;28;45505;-63
2022/06/03 06:21:44;;;;;;;;;6.00;5.00;;;;;;;;5029748;28;45382;-63
2022/06/03 06:24:15;;;;;;;;;6.75;5.50;;;;;;;;5022282;28;45410;-64
2022/06/03 06:26:46;;;;;;;;;7.50;7.50;;;;;;;;5025539;28;45450;-64
2022/06/03 06:29:11;;;;;;;;;6.75;5.25;;;;;;;;5020178;28;45454;-63
2022/06/03 06:32:08;;;;;;;;;10.25;7.75;;;;;;;;5020631;28;45406;-64
2022/06/03 06:34:55;;;;;;;;;6.25;6.00;;;;;;;;5023289;28;45549;-63
2022/06/03 06:37:23;;;;;;;;;9.50;7.50;;;;;;;;5026103;28;45467;-65
2022/06/03 06:40:07;;;;;;;;;7.50;7.50;;;;;;;;5017519;28;45510;-65
2022/06/03 06:42:41;;;;;;;;;7.50;5.75;;;;;;;;5019944;28;45446;-64
2022/06/03 06:45:13;;;;;;;;;11.25;7.50;;;;;;;;5022530;28;45567;-63
2022/06/03 06:47:53;;;;;;;;;3.75;3.75;;;;;;;;5018634;28;45501;-66
2022/06/03 06:50:24;;;;;;;;;9.25;8.75;;;;;;;;5022078;28;45476;-65
2022/06/03 06:53:02;;;;;;;;;8.75;8.75;;;;;;;;5020677;28;45422;-65
2022/06/03 06:55:27;;;;;;;;;7.25;6.25;;;;;;;;5016067;28;47097;-66
2022/06/03 06:57:55;;;;;;;;;5.00;5.00;;;;;;;;5016793;28;45507;-65
2022/06/03 07:00:24;;;;;;;;;6.50;6.50;;;;;;;;5017324;28;45454;-65
2022/06/03 07:03:08;;;;;;;;;6.00;5.00;;;;;;;;5015074;28;45520;-65
2022/06/03 07:05:41;;;;;;;;;7.00;6.00;;;;;;;;5025619;28;46464;-64
2022/06/03 07:08:21;;;;;;;;;7.50;7.50;;;;;;;;5019345;28;45432;-63
2022/06/03 07:10:48;;;;;;;;;7.25;7.25;;;;;;;;5030274;28;45550;-64
2022/06/03 07:13:16;;;;;;;;;6.75;6.25;;;;;;;;5021556;28;45362;-65
2022/06/03 07:15:44;;;;;;;;;4.50;4.50;;;;;;;;5029809;28;46268;-63
2022/06/03 07:21:08;;;;;;;;;6.00;6.00;;;;;;;;5033108;28;45400;-63
2022/06/03 07:23:44;;;;;;;;;8.25;8.25;;;;;;;;5040593;28;45551;-64
2022/06/03 07:26:27;;;;;;;;;6.00;6.00;;;;;;;;5039040;28;45590;-64
2022/06/03 07:28:56;;;;;;;;;9.75;8.75;;;;;;;;5020903;28;45623;-65
2022/06/03 07:31:30;;;;;;;;;6.00;6.00;;;;;;;;5041310;28;45285;-64
2022/06/03 07:33:59;;;;;;;;;7.00;7.00;;;;;;;;5024235;28;45625;-63
2022/06/03 07:36:28;;;;;;;;;8.00;8.00;;;;;;;;5040261;28;46959;-65
2022/06/03 07:38:55;;;;;;;;;11.00;10.00;;;;;;;;5040381;28;45462;-65
2022/06/03 07:41:36;;;;;;;;;7.50;6.00;;;;;;;;5038819;28;45481;-64
2022/06/03 07:44:10;;;;;;;;;8.25;8.25;;;;;;;;5020634;28;45379;-65
2022/06/03 07:46:52;;;;;;;;;6.25;6.25;;;;;;;;5035098;28;47076;-65
2022/06/03 07:49:18;;;;;;;;;9.50;9.50;;;;;;;;5041785;28;45398;-64
2022/06/03 07:51:46;;;;;;;;;9.75;9.75;;;;;;;;5038364;28;45465;-64
2022/06/03 07:54:13;;;;;;;;;8.75;7.25;;;;;;;;5037782;28;45354;-64
2022/06/03 07:56:39;;;;;;;;;6.00;6.00;;;;;;;;5036400;28;46661;-64
2022/06/03 07:59:07;;;;;;;;;10.50;10.25;;;;;;;;5037150;28;45513;-65
2022/06/03 08:01:37;;;;;;;;;8.00;8.00;;;;;;;;5037664;28;45306;-64
2022/06/03 08:04:04;;;;;;;;;7.75;6.00;;;;;;;;5022422;28;45502;-65
2022/06/03 08:10:56;;;;;;;;;9.50;7.00;;;;;;;;5036898;28;45605;-64
2022/06/03 08:12:00;;;;;;;;;6.25;6.25;;;;;;;;5037029;28;45463;-64
2022/06/03 08:14:27;;;;;;;;;5.25;5.25;;;;;;;;5036692;28;45350;-64
2022/06/03 08:16:53;;;;;;;;;7.25;7.25;;;;;;;;5035433;28;46512;-64
2022/06/03 08:19:21;;;;;;;;;8.00;7.75;;;;;;;;5037358;28;45597;-64
2022/06/03 08:21:52;;;;;;;;;9.00;9.00;;;;;;;;5036933;28;45620;-64
2022/06/03 08:24:22;;;;;;;;;8.00;8.00;;;;;;;;5023261;28;45387;-64
2022/06/03 08:26:56;;;;;;;;;7.25;6.25;;;;;;;;5036613;28;46184;-64
2022/06/03 08:29:25;;;;;;;;;10.75;9.50;;;;;;;;5036662;28;45361;-65
2022/06/03 08:31:51;;;;;;;;;7.50;7.50;;;;;;;;5021249;28;45421;-65
2022/06/03 08:34:30;;;;;;;;;9.00;9.00;;;;;;;;5023668;28;45366;-65
2022/06/03 08:36:55;;;;;;;;;10.50;9.25;;;;;;;;5039762;28;47667;-65
2022/06/03 08:39:23;;;;;;;;;8.00;8.00;;;;;;;;5036094;28;45410;-66
2022/06/03 08:41:55;;;;;;;;;7.00;7.00;;;;;;;;5023073;28;45402;-65
2022/06/03 08:44:42;;;;;;;;;17.50;14.25;;;;;;;;5036421;28;45472;-65
2022/06/03 08:47:12;;;;;;;;;8.00;6.50;;;;;;;;5005034;28;46960;-65
2022/06/03 08:50:06;;;;;;;;;12.00;9.00;;;;;;;;5036189;28;45473;-65
2022/06/03 08:52:46;;;;;;;;;9.25;9.25;;;;;;;;5020887;28;45405;-65
2022/06/03 08:55:20;;;;;;;;;9.00;8.75;;;;;;;;5023036;28;45420;-65
2022/06/03 08:57:46;;;;;;;;;9.75;9.50;;;;;;;;5036261;28;46081;-65
2022/06/03 09:00:23;;;;;;;;;10.50;10.50;;;;;;;;5022768;28;46352;-66
2022/06/03 09:03:00;;;;;;;;;10.25;10.00;;;;;;;;5034958;28;45491;-65
2022/06/03 09:05:43;;;;;;;;;10.00;9.50;;;;;;;;5019690;28;45298;-65
2022/06/03 09:08:27;;;;;;;;;11.00;10.00;;;;;;;;5019260;28;46553;-65
2022/06/03 09:10:59;;;;;;;;;9.00;8.75;;;;;;;;5020268;28;45403;-65
2022/06/03 09:13:30;;;;;;;;;11.25;9.50;;;;;;;;5036268;28;45342;-65
2022/06/03 09:15:56;;;;;;;;;10.00;9.75;;;;;;;;5035614;28;45565;-65
2022/06/03 09:18:26;;;;;;;;;10.50;8.00;;;;;;;;5035650;28;46556;-64
2022/06/03 09:20:54;;;;;;;;;9.75;8.75;;;;;;;;5035825;28;45872;-65
2022/06/03 09:23:20;;;;;;;;;14.00;11.00;;;;;;;;5036164;28;45532;-64
2022/06/03 09:25:49;;;;;;;;;8.00;7.00;;;;;;;;5035852;28;45516;-65
2022/06/03 09:28:17;;;;;;;;;11.00;10.00;;;;;;;;5022548;28;47505;-65
2022/06/03 09:30:45;;;;;;;;;8.75;8.00;;;;;;;;5035579;28;45350;-64
2022/06/03 09:33:12;;;;;;;;;10.25;8.00;;;;;;;;5035420;28;45364;-65
2022/06/03 09:35:40;;;;;;;;;9.75;9.75;;;;;;;;5035408;28;45431;-64
2022/06/03 09:38:06;;;;;;;;;9.25;9.25;;;;;;;;5035479;28;45632;-65
2022/06/03 09:40:33;;;;;;;;;7.75;7.75;;;;;;;;5035678;28;45431;-65
2022/06/03 09:43:01;;;;;;;;;11.00;10.25;;;;;;;;5022578;28;45530;-65
2022/06/03 09:45:27;;;;;;;;;14.00;11.25;;;;;;;;5035557;28;47685;-64
2022/06/03 09:47:53;;;;;;;;;10.25;10.25;;;;;;;;5035140;28;45717;-66
2022/06/03 09:50:20;;;;;;;;;9.00;9.00;;;;;;;;5035441;28;45334;-63
2022/06/03 09:52:48;;;;;;;;;8.25;7.25;;;;;;;;5035259;28;45469;-65
2022/06/03 09:55:45;;;;;;;;;8.00;7.25;;;;;;;;5036034;28;45678;-65
2022/06/03 09:58:15;;;;;;;;;8.00;7.00;;;;;;;;4954852;28;45541;-65
2022/06/03 10:00:43;;;;;;;;;10.00;8.75;;;;;;;;4967163;28;45396;-65
2022/06/03 10:03:09;;;;;;;;;12.25;10.25;;;;;;;;4968141;28;45436;-64
2022/06/03 10:05:35;;;;;;;;;10.00;10.00;;;;;;;;4967662;28;45407;-64
2022/06/03 10:08:01;;;;;;;;;8.75;8.75;;;;;;;;4938026;28;46469;-64
2022/06/03 10:13:11;;;;;;;;;10.75;10.75;;;;;;;;4954935;28;45433;-65
2022/06/03 10:15:43;;;;;;;;;15.25;12.75;;;;;;;;4950176;28;45548;-63
2022/06/03 10:18:30;;;;;;;;;10.00;10.00;;;;;;;;4964094;28;46603;-64
2022/06/03 10:21:18;;;;;;;;;11.00;10.25;;;;;;;;4959698;28;45480;-66
2022/06/03 10:23:54;;;;;;;;;10.75;10.75;;;;;;;;4948599;28;45591;-64
2022/06/03 10:26:20;;;;;;;;;12.50;11.50;;;;;;;;4956273;28;45496;-64
2022/06/03 10:28:47;;;;;;;;;14.00;13.25;;;;;;;;4970447;28;46622;-64
2022/06/03 10:31:14;;;;;;;;;10.00;10.00;;;;;;;;4958354;28;45471;-66
2022/06/03 10:33:50;;;;;;;;;10.25;10.00;;;;;;;;4985496;28;45376;-64
2022/06/03 10:36:15;;;;;;;;;14.75;14.75;;;;;;;;5014041;28;45619;-65
2022/06/03 10:38:41;;;;;;;;;12.00;10.50;;;;;;;;5035694;28;45432;-66
2022/06/03 10:41:09;;;;;;;;;12.50;9.75;;;;;;;;5014575;28;46052;-66
2022/06/03 10:43:36;;;;;;;;;12.75;12.75;;;;;;;;5017166;28;45537;-65
2022/06/03 10:46:09;;;;;;;;;15.50;13.25;;;;;;;;5037270;28;45549;-64
2022/06/03 10:48:35;;;;;;;;;13.50;12.75;;;;;;;;5035086;28;46599;-66
2022/06/03 11:01:06;;;;;;;;;11.75;11.00;;;;;;;;5026142;28;45406;-65
2022/06/03 11:02:44;;;;;;;;;11.50;10.25;;;;;;;;5035891;28;45359;-65
2022/06/03 11:05:09;;;;;;;;;11.75;11.75;;;;;;;;5033641;28;45467;-64
2022/06/03 11:07:36;;;;;;;;;13.25;12.00;;;;;;;;5035372;28;45411;-65
2022/06/03 11:10:04;;;;;;;;;14.50;13.50;;;;;;;;5037283;28;45422;-66
2022/06/03 11:12:29;;;;;;;;;10.50;10.25;;;;;;;;5035598;28;45529;-66
2022/06/03 11:14:55;;;;;;;;;13.75;13.00;;;;;;;;5017729;28;45400;-66
2022/06/03 11:17:22;;;;;;;;;12.50;11.25;;;;;;;;5035415;28;45477;-65
2022/06/03 11:19:47;;;;;;;;;13.00;13.00;;;;;;;;5027022;28;45857;-65
2022/06/03 11:22:16;;;;;;;;;17.50;14.25;;;;;;;;5039203;28;45418;-66
2022/06/03 11:24:46;;;;;;;;;14.50;13.25;;;;;;;;5037451;28;45279;-65
2022/06/03 11:27:11;;;;;;;;;13.25;13.25;;;;;;;;5037295;28;45321;-64
2022/06/03 11:29:39;;;;;;;;;13.25;13.25;;;;;;;;5036995;28;46052;-65
2022/06/03 11:32:08;;;;;;;;;13.75;13.75;;;;;;;;5034357;28;45361;-65
2022/06/03 11:34:42;;;;;;;;;11.50;11.50;;;;;;;;5034833;28;45841;-64
2022/06/03 11:37:22;;;;;;;;;12.75;12.75;;;;;;;;5037329;28;45645;-64
2022/06/03 11:39:57;;;;;;;;;13.75;13.75;;;;;;;;5037161;28;45408;-65
2022/06/03 11:42:27;;;;;;;;;12.50;11.50;;;;;;;;5032380;28;45375;-65
2022/06/03 11:45:04;;;;;;;;;13.50;12.50;;;;;;;;5033715;28;45391;-64
2022/06/03 11:47:39;;;;;;;;;13.00;12.25;;;;;;;;5017996;28;45544;-65
2022/06/03 11:50:06;;;;;;;;;11.00;11.00;;;;;;;;5033655;28;46046;-65
2022/06/03 11:52:31;;;;;;;;;12.00;12.00;;;;;;;;5034156;28;45539;-65
2022/06/03 11:54:56;;;;;;;;;14.25;13.50;;;;;;;;5037093;28;45411;-64
2022/06/03 11:57:23;;;;;;;;;11.75;11.50;;;;;;;;5036474;28;45259;-67
2022/06/03 11:59:50;;;;;;;;;12.75;12.75;;;;;;;;5023068;28;48544;-64
2022/06/03 12:02:27;;;;;;;;;8.25;8.25;;;;;;;;5039490;28;45518;-66
2022/06/03 12:04:56;;;;;;;;;9.00;8.00;;;;;;;;5003472;28;45457;-66
2022/06/03 12:07:38;;;;;;;;;10.00;10.00;;;;;;;;5040701;28;45405;-64
2022/06/03 12:10:06;;;;;;;;;9.00;9.00;;;;;;;;5037950;28;48896;-65
2022/06/03 12:15:26;;;;;;;;;8.75;8.75;;;;;;;;5040403;28;45622;-65
2022/06/03 12:17:51;;;;;;;;;8.00;8.00;;;;;;;;5040679;28;45354;-65
2022/06/03 12:20:29;;;;;;;;;9.75;8.75;;;;;;;;5039885;28;45810;-66
2022/06/03 12:22:54;;;;;;;;;8.50;8.50;;;;;;;;5021461;28;45567;-66
2022/06/03 12:25:32;;;;;;;;;9.50;8.75;;;;;;;;5041238;28;45475;-67
2022/06/03 12:27:57;;;;;;;;;8.00;8.00;;;;;;;;5040791;28;45411;-65
2022/06/03 12:30:25;;;;;;;;;7.25;7.25;;;;;;;;5040700;28;45553;-66
2022/06/03 12:32:59;;;;;;;;;11.25;11.25;;;;;;;;5040599;28;45343;-66
2022/06/03 12:35:43;;;;;;;;;7.50;7.50;;;;;;;;5022286;28;45407;-66
2022/06/03 12:38:20;;;;;;;;;8.50;7.00;;;;;;;;5039023;28;45909;-65
2022/06/03 12:41:00;;;;;;;;;9.25;7.25;;;;;;;;5036772;28;46468;-64
2022/06/03 12:43:28;;;;;;;;;6.00;6.00;;;;;;;;5048909;28;45424;-64
2022/06/03 12:46:10;;;;;;;;;8.00;8.00;;;;;;;;5038683;28;45480;-64
2022/06/03 12:48:48;;;;;;;;;9.00;9.00;;;;;;;;5040010;28;45469;-65
2022/06/03 12:51:23;;;;;;;;;8.25;8.25;;;;;;;;5021877;28;46391;-65
2022/06/03 12:53:50;;;;;;;;;7.00;7.00;;;;;;;;5040157;28;45565;-64
2022/06/03 12:56:35;;;;;;;;;9.75;7.75;;;;;;;;5021561;28;45501;-63
2022/06/03 12:59:09;;;;;;;;;7.00;7.00;;;;;;;;5022600;28;45469;-64
2022/06/03 13:01:34;;;;;;;;;8.00;8.00;;;;;;;;5018861;28;45635;-65
2022/06/03 13:04:17;;;;;;;;;8.75;8.25;;;;;;;;5038441;28;45345;-66
2022/06/03 13:07:01;;;;;;;;;8.75;8.75;;;;;;;;5038162;28;45605;-65
2022/06/03 13:09:45;;;;;;;;;8.25;8.25;;;;;;;;5035735;28;45341;-65
2022/06/03 13:12:15;;;;;;;;;8.25;8.25;;;;;;;;5036590;28;46007;-66
2022/06/03 13:14:41;;;;;;;;;11.50;11.25;;;;;;;;5038109;28;45445;-65
2022/06/03 13:17:06;;;;;;;;;8.50;7.00;;;;;;;;5036133;28;45367;-66
2022/06/03 13:19:31;;;;;;;;;7.75;7.75;;;;;;;;5019870;28;45426;-66
2022/06/03 13:21:56;;;;;;;;;8.75;8.75;;;;;;;;5038701;28;45461;-66
2022/06/03 13:24:42;;;;;;;;;9.75;8.75;;;;;;;;5020033;28;45426;-65
2022/06/03 13:27:07;;;;;;;;;12.75;11.50;;;;;;;;5018558;28;46921;-66
2022/06/03 13:30:05;;;;;;;;;10.25;9.00;;;;;;;;5036956;28;45795;-65
2022/06/03 13:32:36;;;;;;;;;8.00;8.00;;;;;;;;4969276;28;47714;-65
2022/06/03 13:35:16;;;;;;;;;9.75;9.00;;;;;;;;4970591;28;45579;-65
2022/06/03 13:37:47;;;;;;;;;13.25;9.75;;;;;;;;4973951;28;45434;-63
2022/06/03 13:40:20;;;;;;;;;12.75;12.00;;;;;;;;4961984;28;45573;-64
2022/06/03 13:42:59;;;;;;;;;12.25;12.25;;;;;;;;4978662;28;46111;-63
2022/06/03 13:45:43;;;;;;;;;14.00;12.25;;;;;;;;4974463;28;45475;-65
2022/06/03 13:48:31;;;;;;;;;8.50;8.25;;;;;;;;4952152;28;45417;-64
2022/06/03 13:51:15;;;;;;;;;13.00;10.75;;;;;;;;4958163;28;45605;-63
2022/06/03 13:53:49;;;;;;;;;11.25;10.25;;;;;;;;4973093;28;46519;-63
2022/06/03 13:56:18;;;;;;;;;11.00;11.00;;;;;;;;4980046;28;45499;-63
2022/06/03 13:58:43;;;;;;;;;7.75;7.75;;;;;;;;4993064;28;45300;-65
2022/06/03 14:01:25;;;;;;;;;14.50;13.00;;;;;;;;4993391;28;45486;-64
2022/06/03 14:03:58;;;;;;;;;9.00;9.00;;;;;;;;4974896;28;46111;-64
2022/06/03 14:06:28;;;;;;;;;13.50;12.50;;;;;;;;4990108;28;45572;-65
2022/06/03 14:09:09;;;;;;;;;13.25;13.25;;;;;;;;5041695;28;45449;-65
2022/06/03 14:11:42;;;;;;;;;13.75;13.75;;;;;;;;5050745;28;46121;-64
2022/06/03 14:14:24;;;;;;;;;12.50;12.50;;;;;;;;5042971;28;46270;-64
2022/06/03 14:16:57;;;;;;;;;14.50;13.50;;;;;;;;5040333;28;45468;-64
2022/06/03 14:19:25;;;;;;;;;14.00;14.00;;;;;;;;5067412;28;45450;-64
2022/06/03 14:21:52;;;;;;;;;13.25;13.25;;;;;;;;5061057;28;45452;-64
2022/06/03 14:24:29;;;;;;;;;12.75;11.75;;;;;;;;5059155;28;47839;-64
2022/06/03 14:27:13;;;;;;;;;13.50;13.50;;;;;;;;5066244;28;45471;-64
2022/06/03 14:29:45;;;;;;;;;14.50;14.50;;;;;;;;5058643;28;45368;-64
2022/06/03 14:32:13;;;;;;;;;13.25;12.50;;;;;;;;5055533;28;45385;-64
2022/06/03 14:34:42;;;;;;;;;15.25;15.25;;;;;;;;5059855;28;46602;-64
2022/06/03 14:37:10;;;;;;;;;14.25;12.75;;;;;;;;5070007;28;45568;-64
2022/06/03 14:39:37;;;;;;;;;12.75;12.00;;;;;;;;5067367;28;45423;-65
2022/06/03 14:42:07;;;;;;;;;11.50;11.50;;;;;;;;5060036;28;45615;-65
2022/06/03 14:44:34;;;;;;;;;9.25;9.25;;;;;;;;5065777;28;47437;-65
2022/06/03 14:47:05;;;;;;;;;12.75;7.75;;;;;;;;5057779;28;45406;-64
2022/06/03 14:49:36;;;;;;;;;10.75;10.25;;;;;;;;5070248;28;45517;-65
2022/06/03 14:52:07;;;;;;;;;8.25;8.25;;;;;;;;5044758;28;46304;-65
2022/06/03 14:54:35;;;;;;;;;19.00;14.75;;;;;;;;5063117;28;46747;-64
2022/06/03 14:57:02;;;;;;;;;11.75;11.00;;;;;;;;5065358;28;45444;-64
2022/06/03 14:59:39;;;;;;;;;12.00;12.00;;;;;;;;5061702;28;45393;-64
2022/06/03 15:02:04;;;;;;;;;15.75;14.00;;;;;;;;5069856;28;48195;-65
2022/06/03 15:04:30;;;;;;;;;12.00;11.25;;;;;;;;5043159;28;48596;-66
2022/06/03 15:07:01;;;;;;;;;11.50;11.50;;;;;;;;5066908;28;45479;-65
2022/06/03 15:09:29;;;;;;;;;9.00;9.00;;;;;;;;5061369;28;45318;-65
2022/06/03 15:11:59;;;;;;;;;10.75;10.00;;;;;;;;5062756;28;45441;-65
2022/06/03 15:14:25;;;;;;;;;7.00;7.00;;;;;;;;5069324;28;45743;-64
2022/06/03 15:16:56;;;;;;;;;6.50;6.50;;;;;;;;5045448;27;45553;-64
2022/06/03 15:20:00;;;;;;;;;12.00;9.50;;;;;;;;5058821;28;45514;-65
2022/06/03 15:22:31;;;;;;;;;6.25;6.00;;;;;;;;4922651;28;45694;-65
2022/06/03 15:25:14;;;;;;;;;5.25;5.25;;;;;;;;4941470;28;46431;-65
2022/06/03 15:27:43;;;;;;;;;6.75;6.75;;;;;;;;4935775;28;45404;-65
2022/06/03 15:30:14;;;;;;;;;6.50;6.50;;;;;;;;4921279;28;45486;-65
2022/06/03 15:32:42;;;;;;;;;11.50;11.50;;;;;;;;4945391;28;45991;-66
2022/06/03 15:35:09;;;;;;;;;5.50;5.50;;;;;;;;4925004;28;46509;-64
2022/06/03 15:37:36;;;;;;;;;4.00;4.00;;;;;;;;4933790;28;45640;-66
2022/06/03 15:40:01;;;;;;;;;6.00;6.00;;;;;;;;4941179;28;45420;-65